Time;durP1;ratioP1;P1;durP2;ratioP2;P2;SDS_P1;SDS_P2;PMS_P1;PMS_P2;Temp;Humidity;BMP_temperature;BMP_pressure;BME280_temperature;BME280_humidity;BME280_pressure;Samples;Min_cycle;Max_cycle;Signal;HPM_P1;HPM_P2
2022/11/25 00:01:16;;;;;;;8.13;1.80;;;7.80;99.90;;;;;;5022061;28;20064;-69
2022/11/25 00:03:43;;;;;;;9.32;1.67;;;7.80;99.90;;;;;;5021440;28;20039;-68
2022/11/25 00:06:13;;;;;;;11.57;2.53;;;7.70;99.90;;;;;;5024801;28;20037;-68
2022/11/25 00:08:40;;;;;;;3.88;1.70;;;7.80;99.90;;;;;;5023414;28;20049;-69
2022/11/25 00:11:06;;;;;;;11.73;1.75;;;7.80;99.90;;;;;;5019692;28;20063;-68
2022/11/25 00:13:32;;;;;;;7.00;2.25;;;7.80;99.90;;;;;;5020267;28;20483;-68
2022/11/25 00:16:21;;;;;;;10.88;1.67;;;7.80;99.90;;;;;;5025119;28;20083;-68
2022/11/25 00:18:51;;;;;;;8.98;1.95;;;7.80;99.90;;;;;;5017395;28;20398;-69
2022/11/25 00:21:23;;;;;;;9.82;2.00;;;7.80;99.90;;;;;;5019299;28;20104;-68
2022/11/25 00:23:54;;;;;;;6.25;1.70;;;7.80;99.90;;;;;;5023848;28;20104;-69
2022/11/25 00:26:20;;;;;;;11.63;2.03;;;7.80;99.90;;;;;;5020834;28;20137;-68
2022/11/25 00:28:46;;;;;;;;;;;7.80;99.90;;;;;;5021102;28;20558;-70
2022/11/25 00:31:15;;;;;;;7.03;1.63;;;7.80;99.90;;;;;;5019274;28;20059;-68
2022/11/25 00:33:40;;;;;;;9.27;2.08;;;7.80;99.90;;;;;;5021216;28;20634;-69
2022/11/25 00:36:24;;;;;;;5.73;1.70;;;7.80;99.90;;;;;;5020105;28;20179;-69
2022/11/25 00:38:58;;;;;;;4.82;1.45;;;7.80;99.90;;;;;;5022268;28;20306;-69
2022/11/25 00:46:55;;;;;;;9.45;1.85;;;7.80;99.90;;;;;;5019751;28;20045;-69
2022/11/25 00:49:21;;;;;;;10.37;1.73;;;7.80;99.90;;;;;;5024822;28;20056;-69
2022/11/25 00:51:47;;;;;;;8.87;1.90;;;7.80;99.90;;;;;;5020418;28;20455;-68
2022/11/25 00:54:13;;;;;;;6.87;1.67;;;7.80;99.90;;;;;;5020361;28;20041;-69
2022/11/25 00:56:38;;;;;;;11.27;2.00;;;7.80;99.90;;;;;;5025348;28;20038;-69
2022/11/25 00:59:04;;;;;;;5.93;1.50;;;7.80;99.90;;;;;;5026236;28;20128;-69
2022/11/25 01:01:30;;;;;;;5.67;1.43;;;7.80;99.90;;;;;;5027134;28;20948;-69
2022/11/25 01:03:55;;;;;;;12.03;2.00;;;7.90;99.90;;;;;;5025246;28;20041;-69
2022/11/25 01:06:21;;;;;;;7.23;1.70;;;7.90;99.90;;;;;;5018258;28;20227;-69
2022/11/25 01:08:47;;;;;;;11.93;1.83;;;7.90;99.90;;;;;;5022561;28;20030;-68
2022/11/25 01:11:16;;;;;;;11.48;2.05;;;7.90;99.90;;;;;;5022774;28;20455;-68
2022/11/25 01:13:42;;;;;;;16.65;2.25;;;7.90;99.90;;;;;;5021069;28;20128;-68
2022/11/25 01:16:10;;;;;;;7.13;1.50;;;7.90;99.90;;;;;;5016516;28;20562;-68
2022/11/25 01:18:35;;;;;;;11.70;2.10;;;7.90;99.90;;;;;;5022913;28;20057;-68
2022/11/25 01:21:20;;;;;;;17.93;2.50;;;7.90;99.90;;;;;;5022373;28;20048;-68
2022/11/25 01:23:47;;;;;;;5.63;2.13;;;7.90;99.90;;;;;;5022834;28;20049;-68
2022/11/25 01:26:15;;;;;;;6.30;1.60;;;7.90;99.90;;;;;;5024678;28;20483;-68
2022/11/25 01:28:40;;;;;;;6.25;1.50;;;7.90;99.90;;;;;;5024716;28;20049;-68
2022/11/25 01:31:18;;;;;;;14.00;2.47;;;7.90;99.90;;;;;;5021246;28;20562;-68
2022/11/25 01:33:44;;;;;;;6.05;1.73;;;7.90;99.90;;;;;;5022876;28;20162;-69
2022/11/25 01:36:13;;;;;;;7.03;2.10;;;8.00;99.90;;;;;;5025932;28;20049;-68
2022/11/25 01:38:40;;;;;;;13.00;1.88;;;8.00;99.90;;;;;;5024077;28;20556;-68
2022/11/25 01:41:07;;;;;;;9.65;2.30;;;8.00;99.90;;;;;;5018943;28;20049;-68
2022/11/25 01:43:33;;;;;;;8.20;2.28;;;8.00;99.90;;;;;;5018720;28;20041;-69
2022/11/25 01:46:11;;;;;;;5.78;1.60;;;8.00;99.90;;;;;;5023300;28;20056;-68
2022/11/25 01:48:41;;;;;;;12.00;2.08;;;8.00;99.90;;;;;;5023031;28;20045;-69
2022/11/25 01:52:05;;;;;;;14.65;2.42;;;8.00;99.90;;;;;;5024137;28;20137;-68
2022/11/25 01:54:38;;;;;;;5.97;2.58;;;8.00;99.90;;;;;;5000163;28;20056;-69
2022/11/25 01:57:10;;;;;;;7.95;1.92;;;8.00;99.90;;;;;;5007109;28;20045;-69
2022/11/25 01:59:43;;;;;;;12.90;1.85;;;8.00;99.90;;;;;;5022719;28;20046;-68
2022/11/25 02:02:09;;;;;;;9.63;2.00;;;8.00;99.90;;;;;;5020171;28;20603;-68
2022/11/25 02:04:38;;;;;;;7.15;2.22;;;8.00;99.90;;;;;;5021481;28;20153;-68
2022/11/25 02:07:11;;;;;;;10.35;2.70;;;8.00;99.90;;;;;;5026230;28;20045;-69
2022/11/25 02:09:40;;;;;;;15.88;2.45;;;8.00;99.90;;;;;;5023123;28;20037;-69
2022/11/25 02:12:06;;;;;;;9.25;1.85;;;8.00;99.90;;;;;;5016812;28;20045;-69
2022/11/25 02:14:32;;;;;;;8.63;1.67;;;8.00;99.90;;;;;;5022728;28;20403;-69
2022/11/25 02:17:00;;;;;;;6.10;1.40;;;8.00;99.90;;;;;;5029824;28;20041;-72
2022/11/25 02:19:44;;;;;;;6.82;1.58;;;8.00;99.90;;;;;;5022560;28;20332;-74
2022/11/25 02:22:18;;;;;;;10.02;2.47;;;8.00;99.90;;;;;;5019770;28;20128;-69
2022/11/25 02:24:46;;;;;;;5.03;2.05;;;7.90;99.90;;;;;;5024507;28;20086;-68
2022/11/25 02:27:12;;;;;;;11.10;1.80;;;8.00;99.90;;;;;;5023950;28;20048;-68
2022/11/25 02:29:38;;;;;;;14.07;1.52;;;8.00;99.90;;;;;;5020634;28;20049;-68
2022/11/25 02:32:04;;;;;;;12.32;2.63;;;7.90;99.90;;;;;;5016488;28;20050;-68
2022/11/25 02:34:30;;;;;;;11.10;2.22;;;8.00;99.90;;;;;;5024082;28;20045;-68
2022/11/25 02:36:56;;;;;;;10.03;2.73;;;8.00;99.90;;;;;;5020929;28;20107;-68
2022/11/25 02:39:22;;;;;;;14.10;2.23;;;8.00;99.90;;;;;;5020121;28;20112;-68
2022/11/25 02:41:55;;;;;;;8.73;2.22;;;8.00;99.90;;;;;;5016834;28;20413;-68
2022/11/25 02:44:20;;;;;;;6.82;1.63;;;7.90;99.90;;;;;;5024500;28;20038;-68
2022/11/25 02:46:46;;;;;;;6.73;1.90;;;8.00;99.90;;;;;;5022496;28;20075;-68
2022/11/25 02:49:12;;;;;;;4.63;1.37;;;8.00;99.90;;;;;;5019374;28;20230;-69
2022/11/25 02:51:40;;;;;;;6.97;1.80;;;8.00;99.90;;;;;;5019461;28;20046;-68
2022/11/25 02:54:06;;;;;;;9.35;2.40;;;8.00;99.90;;;;;;5025138;28;20064;-69
2022/11/25 02:56:34;;;;;;;11.57;2.33;;;8.00;99.90;;;;;;5024291;28;20034;-68
2022/11/25 02:59:00;;;;;;;5.55;1.50;;;8.00;99.90;;;;;;5016774;28;20041;-69
2022/11/25 03:01:27;;;;;;;6.35;1.90;;;8.00;99.90;;;;;;5024385;28;20033;-68
2022/11/25 03:03:52;;;;;;;15.05;2.50;;;8.00;99.90;;;;;;5026167;28;20041;-69
2022/11/25 03:06:18;;;;;;;11.07;2.30;;;8.00;99.90;;;;;;5027011;28;20440;-69
2022/11/25 03:08:44;;;;;;;7.90;2.00;;;8.10;99.90;;;;;;5027081;28;20262;-69
2022/11/25 03:11:09;;;;;;;7.43;2.07;;;8.10;99.90;;;;;;5024813;28;20298;-68
2022/11/25 03:13:35;;;;;;;4.67;1.77;;;8.10;99.90;;;;;;5024646;28;20056;-68
2022/11/25 03:16:01;;;;;;;9.70;1.97;;;8.10;99.90;;;;;;5040900;28;20053;-68
2022/11/25 03:18:26;;;;;;;7.43;1.60;;;8.10;99.90;;;;;;5025005;28;20038;-69
2022/11/25 03:20:53;;;;;;;9.67;1.70;;;8.10;99.90;;;;;;5023405;28;20041;-68
2022/11/25 03:23:19;;;;;;;5.78;1.88;;;8.10;99.90;;;;;;5026548;28;20052;-69
2022/11/25 03:25:45;;;;;;;8.50;1.60;;;8.10;99.90;;;;;;5028345;28;20029;-68
2022/11/25 03:28:10;;;;;;;6.10;2.00;;;8.10;99.90;;;;;;5027420;28;20356;-68
2022/11/25 03:30:36;;;;;;;6.37;1.57;;;8.10;99.90;;;;;;5026527;28;20089;-68
2022/11/25 03:33:01;;;;;;;8.90;2.13;;;8.10;99.90;;;;;;5025758;28;20045;-68
2022/11/25 03:35:28;;;;;;;7.87;1.87;;;8.10;99.90;;;;;;5027360;28;20068;-69
2022/11/25 03:37:54;;;;;;;6.95;1.63;;;8.20;99.90;;;;;;5009507;28;20446;-68
2022/11/25 03:40:20;;;;;;;9.07;2.55;;;8.10;99.90;;;;;;5023959;28;20041;-69
2022/11/25 03:42:46;;;;;;;5.57;1.83;;;8.20;99.90;;;;;;5025692;28;20096;-68
2022/11/25 03:45:13;;;;;;;5.15;2.85;;;8.20;99.90;;;;;;5024218;28;20037;-68
2022/11/25 03:47:39;;;;;;;9.52;2.17;;;8.20;99.90;;;;;;5026451;28;20049;-68
2022/11/25 03:50:06;;;;;;;6.60;2.15;;;8.20;99.90;;;;;;5021129;28;20049;-68
2022/11/25 03:52:32;;;;;;;5.88;2.08;;;8.20;99.90;;;;;;5010475;28;20069;-68
2022/11/25 03:54:58;;;;;;;11.23;2.13;;;8.20;99.90;;;;;;5026352;28;20068;-68
2022/11/25 03:57:23;;;;;;;13.40;2.30;;;8.20;99.90;;;;;;5022458;28;20461;-68
2022/11/25 03:59:49;;;;;;;5.97;1.77;;;8.30;99.90;;;;;;5024698;28;20052;-69
2022/11/25 04:02:14;;;;;;;6.90;1.67;;;8.20;99.90;;;;;;5023216;28;20049;-69
2022/11/25 04:04:40;;;;;;;7.47;2.07;;;8.20;99.90;;;;;;5027803;28;20057;-68
2022/11/25 04:07:06;;;;;;;6.70;2.40;;;8.20;99.90;;;;;;5027538;28;20443;-68
2022/11/25 04:09:31;;;;;;;7.53;2.07;;;8.30;99.90;;;;;;5007730;28;20043;-69
2022/11/25 04:14:41;;;;;;;8.55;2.10;;;8.20;99.90;;;;;;5023899;28;20116;-69
2022/11/25 04:17:07;;;;;;;9.37;2.77;;;8.30;99.90;;;;;;5021836;28;20475;-69
2022/11/25 04:19:32;;;;;;;5.33;2.10;;;8.30;99.90;;;;;;5027260;28;20049;-69
2022/11/25 04:22:01;;;;;;;8.67;2.00;;;8.30;99.90;;;;;;5021514;28;20080;-69
2022/11/25 04:24:27;;;;;;;10.88;2.25;;;8.30;99.90;;;;;;5026882;28;20141;-68
2022/11/25 04:26:53;;;;;;;7.38;2.05;;;8.30;99.90;;;;;;5026898;28;20120;-69
2022/11/25 04:29:19;;;;;;;5.88;2.00;;;8.30;99.90;;;;;;5025164;28;20478;-68
2022/11/25 04:31:45;;;;;;;17.50;2.60;;;8.20;99.90;;;;;;5033674;23;20633;-68
2022/11/25 04:34:11;;;;;;;8.50;2.45;;;8.30;99.90;;;;;;5024625;28;20229;-69
2022/11/25 04:36:36;;;;;;;4.73;2.17;;;8.30;99.90;;;;;;5030969;28;20391;-69
2022/11/25 04:39:03;;;;;;;12.17;2.77;;;8.30;99.90;;;;;;5030017;28;20049;-68
2022/11/25 04:41:29;;;;;;;11.95;3.28;;;8.30;99.90;;;;;;5028258;28;20542;-69
2022/11/25 04:43:54;;;;;;;10.53;3.10;;;8.30;99.90;;;;;;5038863;28;20136;-68
2022/11/25 04:46:23;;;;;;;8.63;2.27;;;8.30;99.90;;;;;;5032368;28;20047;-68
2022/11/25 04:48:49;;;;;;;5.05;2.17;;;8.30;99.90;;;;;;5036557;28;20049;-69
2022/11/25 04:51:15;;;;;;;11.98;2.55;;;8.30;99.90;;;;;;5038710;28;20049;-67
2022/11/25 04:53:42;;;;;;;6.67;2.00;;;8.30;99.90;;;;;;5035725;28;20045;-68
2022/11/25 04:56:12;;;;;;;9.25;2.60;;;8.30;99.90;;;;;;5036600;28;20377;-68
2022/11/25 05:01:22;;;;;;;9.05;1.83;;;8.30;99.90;;;;;;5038738;28;20040;-68
2022/11/25 05:03:48;;;;;;;7.23;2.40;;;8.40;99.90;;;;;;5038028;28;20120;-68
2022/11/25 05:06:14;;;;;;;14.13;2.60;;;8.30;99.90;;;;;;5039354;28;20037;-68
2022/11/25 05:08:40;;;;;;;8.47;2.40;;;8.30;99.90;;;;;;5040541;28;20485;-69
2022/11/25 05:11:05;;;;;;;7.07;2.50;;;8.30;99.90;;;;;;5034148;28;20041;-68
2022/11/25 05:13:31;;;;;;;11.27;2.53;;;8.30;99.90;;;;;;5036549;28;20041;-68
2022/11/25 05:15:58;;;;;;;11.47;2.70;;;8.30;99.90;;;;;;5039656;28;20386;-68
2022/11/25 05:18:24;;;;;;;7.88;1.95;;;8.30;99.90;;;;;;5033405;28;20076;-68
2022/11/25 05:20:50;;;;;;;9.27;2.43;;;8.30;99.90;;;;;;5037146;28;20083;-68
2022/11/25 05:23:15;;;;;;;5.10;2.27;;;8.40;99.90;;;;;;5037656;28;20136;-69
2022/11/25 05:25:41;;;;;;;5.63;1.93;;;8.30;99.90;;;;;;5037728;28;20396;-69
2022/11/25 05:28:09;;;;;;;10.70;2.30;;;8.30;99.90;;;;;;5031472;28;20152;-69
2022/11/25 05:30:35;;;;;;;7.53;2.33;;;8.40;99.90;;;;;;5029985;28;20052;-69
2022/11/25 05:33:00;;;;;;;6.10;2.27;;;8.40;99.90;;;;;;5018535;28;20044;-68
2022/11/25 05:35:26;;;;;;;10.60;2.63;;;8.40;99.90;;;;;;5037839;28;20104;-69
2022/11/25 05:37:51;;;;;;;9.53;2.37;;;8.40;99.90;;;;;;5042937;28;20513;-69
2022/11/25 05:40:17;;;;;;;10.87;2.00;;;8.40;99.90;;;;;;5036979;28;20037;-69
2022/11/25 05:42:42;;;;;;;7.63;2.40;;;8.40;99.90;;;;;;5031144;28;22738;-69
2022/11/25 05:45:08;;;;;;;7.47;2.47;;;8.40;99.90;;;;;;5039159;28;20037;-68
2022/11/25 05:47:34;;;;;;;14.73;2.50;;;8.40;99.90;;;;;;5032612;28;20037;-69
2022/11/25 05:50:00;;;;;;;8.67;2.90;;;8.40;99.90;;;;;;5033301;28;20040;-69
2022/11/25 05:52:25;;;;;;;8.23;2.27;;;8.40;99.90;;;;;;5035800;28;20033;-68
2022/11/25 05:54:51;;;;;;;8.20;2.13;;;8.40;99.90;;;;;;5051000;28;20068;-69
2022/11/25 05:57:16;;;;;;;14.40;2.93;;;8.40;99.90;;;;;;5026919;28;20081;-69
2022/11/25 05:59:42;;;;;;;5.23;2.17;;;8.40;99.90;;;;;;5031228;28;20130;-69
2022/11/25 06:02:07;;;;;;;10.50;2.57;;;8.50;99.90;;;;;;5032944;28;20049;-68
2022/11/25 06:04:33;;;;;;;6.73;2.27;;;8.40;99.90;;;;;;5029738;28;20033;-69
2022/11/25 06:06:59;;;;;;;14.20;3.57;;;8.50;99.90;;;;;;5034127;28;20387;-69
2022/11/25 06:09:24;;;;;;;9.90;2.63;;;8.50;99.90;;;;;;5031590;28;20086;-69
2022/11/25 06:11:50;;;;;;;10.60;2.40;;;8.50;99.90;;;;;;5035810;28;20521;-69
2022/11/25 06:14:16;;;;;;;4.37;2.00;;;8.50;99.90;;;;;;5029306;28;20271;-69
2022/11/25 06:16:42;;;;;;;5.18;1.90;;;8.40;99.90;;;;;;5030372;28;20037;-69
2022/11/25 06:19:07;;;;;;;7.50;2.03;;;8.40;99.90;;;;;;5029434;28;20048;-69
2022/11/25 06:21:33;;;;;;;4.40;2.00;;;8.50;99.90;;;;;;5033937;28;20044;-69
2022/11/25 06:23:59;;;;;;;7.47;1.73;;;8.40;99.90;;;;;;5028816;28;20660;-70
2022/11/25 06:26:25;;;;;;;8.05;2.67;;;8.40;99.90;;;;;;5037589;28;20041;-69
2022/11/25 06:28:55;;;;;;;8.30;2.23;;;8.40;99.90;;;;;;5038696;28;20466;-69
2022/11/25 06:31:24;;;;;;;7.45;2.25;;;8.40;99.90;;;;;;5026997;28;20048;-69
2022/11/25 06:33:51;;;;;;;5.65;2.28;;;8.40;99.90;;;;;;5028549;28;20060;-69
2022/11/25 06:36:18;;;;;;;8.48;2.17;;;8.40;99.90;;;;;;5021557;28;20045;-69
2022/11/25 06:38:46;;;;;;;3.33;1.73;;;8.40;99.90;;;;;;5039093;28;20113;-69
2022/11/25 06:41:12;;;;;;;6.88;1.75;;;8.40;99.90;;;;;;5024642;28;20061;-70
2022/11/25 06:43:38;;;;;;;8.02;2.35;;;8.50;99.90;;;;;;5038037;28;20041;-73
2022/11/25 06:46:08;;;;;;;6.17;2.40;;;8.40;99.90;;;;;;5040854;28;20041;-71
2022/11/25 06:48:35;;;;;;;5.93;2.28;;;8.40;99.90;;;;;;5038275;28;20286;-70
2022/11/25 06:51:04;;;;;;;10.35;2.95;;;8.40;99.90;;;;;;5042547;28;20041;-70
2022/11/25 06:53:30;;;;;;;7.88;2.28;;;8.40;99.90;;;;;;5041781;28;20131;-68
2022/11/25 06:56:02;;;;;;;;;;;8.40;99.90;;;;;;5035650;28;20356;-69
2022/11/25 06:58:29;;;;;;;6.03;1.73;;;8.40;99.90;;;;;;5037391;28;19952;-69
2022/11/25 07:01:03;;;;;;;10.30;2.67;;;8.40;99.90;;;;;;5037754;28;20041;-69
2022/11/25 07:03:29;;;;;;;4.60;2.17;;;8.40;99.90;;;;;;5036677;28;20033;-69
2022/11/25 07:05:58;;;;;;;4.93;2.70;;;8.40;99.90;;;;;;5036328;28;20030;-69
2022/11/25 07:08:27;;;;;;;8.40;2.35;;;8.30;99.90;;;;;;5029272;28;20047;-69
2022/11/25 07:10:53;;;;;;;9.18;2.10;;;8.30;99.90;;;;;;5051371;28;20048;-69
2022/11/25 07:13:19;;;;;;;4.18;1.75;;;8.30;99.90;;;;;;5039544;28;20033;-69
2022/11/25 07:15:45;;;;;;;12.60;3.22;;;8.30;99.90;;;;;;5038423;28;20252;-70
2022/11/25 07:18:11;;;;;;;9.02;2.50;;;8.30;99.90;;;;;;5034325;28;20040;-70
2022/11/25 07:20:37;;;;;;;3.77;1.60;;;8.20;99.90;;;;;;5032671;28;20068;-70
2022/11/25 07:23:03;;;;;;;5.13;2.17;;;8.20;99.90;;;;;;5037401;28;20282;-69
2022/11/25 07:25:29;;;;;;;5.60;2.23;;;8.20;99.90;;;;;;5030140;28;20498;-70
2022/11/25 07:27:54;;;;;;;14.10;2.43;;;8.20;99.90;;;;;;5042699;28;20475;-69
2022/11/25 07:30:20;;;;;;;4.33;1.73;;;8.20;99.90;;;;;;5035795;28;20037;-69
2022/11/25 07:32:46;;;;;;;4.65;1.85;;;8.20;99.90;;;;;;5032089;28;20100;-70
2022/11/25 07:35:12;;;;;;;7.07;2.17;;;8.10;99.90;;;;;;5041219;28;20484;-72
2022/11/25 07:37:37;;;;;;;6.23;2.20;;;8.10;99.90;;;;;;5042103;28;20406;-72
2022/11/25 07:40:04;;;;;;;3.47;1.60;;;8.10;99.90;;;;;;5041035;28;20037;-72
2022/11/25 07:42:29;;;;;;;8.55;2.67;;;8.10;99.90;;;;;;5043180;28;20045;-69
2022/11/25 07:44:55;;;;;;;5.03;2.03;;;8.10;99.90;;;;;;5039302;28;20047;-68
2022/11/25 07:47:21;;;;;;;10.43;2.50;;;8.00;99.90;;;;;;5034121;28;20642;-69
2022/11/25 07:49:46;;;;;;;9.70;2.03;;;8.10;99.90;;;;;;5037368;28;20033;-69
2022/11/25 07:52:12;;;;;;;9.00;2.20;;;8.10;99.90;;;;;;5036605;28;20033;-69
2022/11/25 07:54:37;;;;;;;5.03;1.80;;;8.00;99.90;;;;;;5037754;28;20041;-69
2022/11/25 07:57:03;;;;;;;6.40;2.33;;;8.00;99.90;;;;;;5037907;28;20131;-69
2022/11/25 07:59:29;;;;;;;9.73;2.10;;;8.00;99.90;;;;;;5042857;28;20224;-69
2022/11/25 08:01:55;;;;;;;11.17;1.83;;;8.00;99.90;;;;;;5032775;28;20370;-69
2022/11/25 08:04:21;;;;;;;5.97;1.70;;;8.00;99.90;;;;;;5039097;28;20094;-69
2022/11/25 08:06:50;;;;;;;7.50;1.77;;;8.00;99.90;;;;;;5039736;28;20041;-69
2022/11/25 08:09:19;;;;;;;6.32;1.65;;;8.00;99.90;;;;;;5040513;28;20033;-68
2022/11/25 08:11:45;;;;;;;8.25;2.60;;;8.00;99.90;;;;;;5030268;28;20051;-68
2022/11/25 08:14:11;;;;;;;4.28;1.77;;;8.00;99.90;;;;;;5036174;28;20047;-69
2022/11/25 08:16:37;;;;;;;13.50;2.40;;;8.00;99.90;;;;;;5036970;28;20041;-69
2022/11/25 08:19:05;;;;;;;4.72;1.90;;;8.00;99.90;;;;;;5035753;28;20091;-68
2022/11/25 08:21:31;;;;;;;5.47;2.20;;;7.90;99.90;;;;;;5031225;28;20294;-69
2022/11/25 08:23:57;;;;;;;9.93;3.43;;;8.00;99.90;;;;;;5037909;28;20210;-68
2022/11/25 08:26:33;;;;;;;4.57;1.70;;;7.90;99.90;;;;;;5040110;28;20511;-69
2022/11/25 08:29:00;;;;;;;5.20;1.80;;;8.00;99.90;;;;;;5035168;28;20080;-69
2022/11/25 08:31:29;;;;;;;7.60;2.05;;;8.00;99.90;;;;;;5037274;28;20813;-69
2022/11/25 08:33:56;;;;;;;6.80;2.67;;;8.00;99.90;;;;;;5034632;28;20643;-69
2022/11/25 08:36:22;;;;;;;6.55;2.03;;;8.00;99.90;;;;;;5038173;28;20029;-69
2022/11/25 08:38:50;;;;;;;3.78;1.85;;;8.00;99.90;;;;;;5034043;28;20114;-71
2022/11/25 08:41:19;;;;;;;3.90;1.90;;;8.00;99.90;;;;;;5033211;28;20122;-71
2022/11/25 08:43:45;;;;;;;8.80;1.70;;;8.00;99.90;;;;;;5039700;28;20438;-71
2022/11/25 08:46:14;;;;;;;4.35;1.92;;;8.10;99.90;;;;;;5038057;28;20090;-72
2022/11/25 08:48:40;;;;;;;4.53;1.58;;;8.10;99.90;;;;;;5037804;28;20234;-71
2022/11/25 08:51:09;;;;;;;7.60;1.92;;;8.10;99.90;;;;;;5033960;28;20060;-70
2022/11/25 08:53:35;;;;;;;10.25;1.92;;;8.10;99.90;;;;;;5039679;28;20444;-71
2022/11/25 08:56:01;;;;;;;8.75;2.00;;;8.10;99.90;;;;;;5037210;28;20045;-73
2022/11/25 08:58:26;;;;;;;9.93;2.93;;;8.20;99.90;;;;;;5032084;28;20483;-77
2022/11/25 09:00:52;;;;;;;7.10;2.20;;;8.20;99.90;;;;;;5035157;28;20041;-72
2022/11/25 09:03:17;;;;;;;8.37;2.20;;;8.20;99.90;;;;;;5035198;28;20260;-75
2022/11/25 09:05:43;;;;;;;5.07;2.10;;;8.20;99.90;;;;;;5042184;28;20045;-74
2022/11/25 09:08:10;;;;;;;8.35;2.95;;;8.20;99.90;;;;;;5040827;28;20033;-71
2022/11/25 09:10:36;;;;;;;;;;;8.30;99.90;;;;;;5032954;28;20045;-72
2022/11/25 09:13:02;;;;;;;6.32;1.85;;;8.40;99.90;;;;;;5031248;28;19925;-68
2022/11/25 09:15:28;;;;;;;4.43;2.10;;;8.30;99.90;;;;;;5042911;28;20404;-68
2022/11/25 09:18:12;;;;;;;7.70;2.75;;;8.40;99.90;;;;;;5044292;28;20064;-69
2022/11/25 09:20:39;;;;;;;5.72;2.13;;;8.40;99.90;;;;;;5031373;28;20076;-68
2022/11/25 09:23:06;;;;;;;5.50;2.15;;;8.40;99.90;;;;;;5035320;28;20088;-69
2022/11/25 09:25:32;;;;;;;8.85;2.28;;;8.40;99.90;;;;;;5036341;28;20090;-69
2022/11/25 09:27:58;;;;;;;7.70;2.30;;;8.50;99.90;;;;;;5031092;28;20122;-69
2022/11/25 09:30:24;;;;;;;6.30;2.33;;;8.50;99.90;;;;;;5032914;28;20431;-68
2022/11/25 09:32:52;;;;;;;4.35;2.00;;;8.50;99.90;;;;;;5030139;28;20037;-69
2022/11/25 09:35:19;;;;;;;4.80;2.08;;;8.60;99.90;;;;;;5034079;28;20037;-68
2022/11/25 09:37:44;;;;;;;7.43;2.15;;;8.60;99.90;;;;;;5033661;28;20034;-68
2022/11/25 09:40:24;;;;;;;5.10;2.23;;;8.60;99.90;;;;;;5033452;28;20049;-69
2022/11/25 09:46:51;;;;;;;6.55;2.53;;;8.70;99.90;;;;;;4994514;28;20046;-69
2022/11/25 09:49:42;;;;;;;7.45;2.20;;;8.70;99.90;;;;;;5028692;28;20092;-68
2022/11/25 09:52:17;;;;;;;4.57;1.77;;;8.80;99.90;;;;;;5026462;28;20064;-69
2022/11/25 09:54:44;;;;;;;4.85;1.98;;;8.80;99.90;;;;;;5036738;28;20485;-70
2022/11/25 09:57:28;;;;;;;;;;;8.80;99.90;;;;;;5036783;28;20353;-69
2022/11/25 09:59:56;;;;;;;7.95;2.30;;;8.90;99.90;;;;;;5032481;28;19921;-69
2022/11/25 10:02:41;;;;;;;4.25;1.90;;;8.90;99.90;;;;;;5034054;28;20068;-69
2022/11/25 10:05:11;;;;;;;6.28;2.00;;;9.00;99.90;;;;;;5018789;28;20045;-69
2022/11/25 10:07:45;;;;;;;6.10;2.60;;;9.10;99.90;;;;;;5042483;28;20045;-68
2022/11/25 10:10:28;;;;;;;6.20;2.20;;;9.10;99.90;;;;;;5035494;28;20440;-69
2022/11/25 10:12:56;;;;;;;7.30;2.13;;;9.10;99.90;;;;;;5028827;28;20164;-69
2022/11/25 10:15:36;;;;;;;9.48;2.55;;;9.20;99.90;;;;;;5033792;28;20103;-69
2022/11/25 10:18:15;;;;;;;8.00;2.38;;;9.20;99.90;;;;;;5032920;28;20099;-68
2022/11/25 10:20:42;;;;;;;4.50;1.70;;;9.20;99.90;;;;;;5037946;28;20352;-69
2022/11/25 10:23:24;;;;;;;8.27;2.40;;;9.20;99.90;;;;;;5034605;28;20049;-69
2022/11/25 10:25:55;;;;;;;6.57;2.13;;;9.30;99.90;;;;;;5034953;28;20044;-69
2022/11/25 10:28:24;;;;;;;8.18;2.20;;;9.40;99.90;;;;;;5036991;28;20122;-69
2022/11/25 10:30:52;;;;;;;7.93;2.35;;;9.50;99.90;;;;;;5034352;28;20042;-69
2022/11/25 10:33:30;;;;;;;8.05;2.22;;;9.60;99.90;;;;;;5039173;28;20045;-69
2022/11/25 10:36:07;;;;;;;6.15;2.38;;;9.60;99.90;;;;;;5039188;28;20595;-68
2022/11/25 10:38:55;;;;;;;4.72;2.53;;;9.70;99.90;;;;;;5035271;28;20045;-69
2022/11/25 10:41:25;;;;;;;8.35;2.03;;;9.70;99.90;;;;;;5029608;28;20187;-69
2022/11/25 10:43:50;;;;;;;6.63;1.88;;;9.80;99.90;;;;;;5034645;28;20534;-69
2022/11/25 10:46:43;;;;;;;7.23;1.60;;;9.90;99.90;;;;;;5040695;28;20154;-68
2022/11/25 10:49:26;;;;;;;7.70;1.73;;;10.00;99.90;;;;;;5039623;28;20470;-69
2022/11/25 10:51:52;;;;;;;4.70;1.60;;;10.10;99.90;;;;;;5033309;28;20037;-68
2022/11/25 10:54:20;;;;;;;10.77;2.67;;;10.30;99.90;;;;;;5040271;28;20067;-69
2022/11/25 10:56:52;;;;;;;7.53;2.15;;;10.40;99.90;;;;;;5033016;28;20096;-69
2022/11/25 10:59:25;;;;;;;8.73;1.88;;;10.50;99.90;;;;;;5033362;28;20116;-69
2022/11/25 11:01:52;;;;;;;8.02;1.20;;;10.50;99.90;;;;;;5037583;28;20103;-69
2022/11/25 11:04:19;;;;;;;4.60;1.75;;;10.40;99.90;;;;;;5036195;28;20040;-69
2022/11/25 11:06:47;;;;;;;6.95;2.42;;;10.30;99.90;;;;;;5033829;28;20356;-68
2022/11/25 11:09:37;;;;;;;5.38;1.35;;;10.30;99.90;;;;;;5035098;28;25167;-69
2022/11/25 11:12:19;;;;;;;5.50;1.70;;;10.30;99.90;;;;;;5036323;28;20356;-70
2022/11/25 11:14:45;;;;;;;7.60;2.40;;;10.20;99.90;;;;;;5036289;28;20052;-69
2022/11/25 11:17:34;;;;;;;8.93;1.98;;;10.20;99.90;;;;;;5040089;28;20358;-69
2022/11/25 11:20:06;;;;;;;11.48;2.42;;;10.20;99.90;;;;;;5035224;28;20053;-68
2022/11/25 11:22:34;;;;;;;8.23;2.38;;;10.20;99.90;;;;;;5039492;28;20045;-69
2022/11/25 11:25:18;;;;;;;10.13;1.90;;;10.20;99.90;;;;;;5034497;28;20051;-69
2022/11/25 11:27:44;;;;;;;8.32;2.53;;;10.20;99.90;;;;;;5036418;28;20121;-69
2022/11/25 11:30:15;;;;;;;10.05;2.03;;;10.20;99.90;;;;;;5033606;28;20052;-71
2022/11/25 11:32:44;;;;;;;10.90;2.03;;;10.20;99.90;;;;;;5042898;28;20114;-69
2022/11/25 11:35:28;;;;;;;7.25;2.05;;;10.30;99.90;;;;;;5029472;28;20207;-69
2022/11/25 11:38:04;;;;;;;7.97;2.30;;;10.40;99.90;;;;;;5029658;28;20494;-69
2022/11/25 11:40:40;;;;;;;6.10;2.30;;;10.50;99.90;;;;;;5035210;28;20048;-71
2022/11/25 11:43:28;;;;;;;13.48;2.30;;;10.50;99.90;;;;;;5036656;28;20447;-69
2022/11/25 11:46:03;;;;;;;4.82;1.20;;;10.60;99.90;;;;;;5033344;28;20052;-69
2022/11/25 11:48:40;;;;;;;8.02;1.67;;;10.70;99.90;;;;;;5030318;28;20045;-68
2022/11/25 11:51:19;;;;;;;7.53;1.90;;;10.70;99.90;;;;;;5038225;28;20037;-69
2022/11/25 11:54:21;;;;;;;6.88;2.08;;;10.70;99.90;;;;;;5035084;28;20045;-68
2022/11/25 11:56:55;;;;;;;6.63;1.63;;;10.60;99.90;;;;;;4976026;28;20470;-69
2022/11/25 11:59:47;;;;;;;7.40;2.17;;;10.60;99.90;;;;;;5027061;28;20142;-69
2022/11/25 12:02:21;;;;;;;14.07;3.20;;;10.70;99.90;;;;;;5039075;28;20057;-69
2022/11/25 12:05:02;;;;;;;11.50;2.67;;;10.70;99.90;;;;;;5044895;28;20041;-69
2022/11/25 12:07:46;;;;;;;6.55;1.83;;;10.60;99.90;;;;;;5037510;28;20491;-72
2022/11/25 12:10:14;;;;;;;9.32;2.55;;;10.60;99.90;;;;;;5039044;28;20029;-75
2022/11/25 12:12:49;;;;;;;10.60;2.97;;;10.60;99.90;;;;;;5044544;28;20044;-69
2022/11/25 12:15:53;;;;;;;12.73;1.95;;;10.70;99.90;;;;;;5035549;28;20502;-69
2022/11/25 12:18:30;;;;;;;6.38;1.35;;;10.80;99.90;;;;;;5036300;28;20039;-69
2022/11/25 12:21:07;;;;;;;12.15;2.47;;;10.90;99.90;;;;;;5036912;28;20110;-74
2022/11/25 12:23:39;;;;;;;8.05;2.05;;;11.00;99.90;;;;;;5035174;28;20052;-70
2022/11/25 12:26:19;;;;;;;7.97;2.00;;;11.20;99.90;;;;;;5037978;28;20120;-70
2022/11/25 12:29:00;;;;;;;9.27;1.58;;;11.20;99.90;;;;;;5043887;28;20130;-69
2022/11/25 12:31:31;;;;;;;6.50;1.85;;;11.20;99.90;;;;;;5041053;28;20079;-69
2022/11/25 12:34:16;;;;;;;11.10;3.15;;;11.20;99.90;;;;;;5035862;28;20305;-69
2022/11/25 12:36:44;;;;;;;8.52;2.75;;;11.30;99.90;;;;;;5035094;28;20044;-69
2022/11/25 12:39:39;;;;;;;9.15;2.92;;;11.20;99.90;;;;;;5039707;28;20090;-71
2022/11/25 12:42:15;;;;;;;6.45;2.60;;;11.20;99.90;;;;;;5037517;28;20455;-69
2022/11/25 12:44:56;;;;;;;8.25;1.77;;;11.20;99.90;;;;;;5041800;28;20128;-69
2022/11/25 12:47:21;;;;;;;9.52;1.83;;;11.10;99.90;;;;;;5035296;28;20110;-69
2022/11/25 12:49:49;;;;;;;12.93;1.73;;;11.20;99.90;;;;;;5032818;28;20514;-69
2022/11/25 12:52:49;;;;;;;7.50;1.48;;;11.20;99.90;;;;;;5039330;28;20048;-69
2022/11/25 12:55:20;;;;;;;11.93;2.03;;;11.30;99.90;;;;;;5028397;28;20041;-69
2022/11/25 12:58:01;;;;;;;6.88;1.48;;;11.40;99.90;;;;;;5036921;28;20114;-69
2022/11/25 13:01:10;;;;;;;10.50;1.40;;;11.40;99.90;;;;;;5030844;28;20460;-69
2022/11/25 13:03:39;;;;;;;;;;;11.50;99.90;;;;;;5006481;28;20524;-69
2022/11/25 13:06:40;;;;;;;9.18;1.70;;;11.50;99.90;;;;;;5039182;28;20436;-69
2022/11/25 13:09:59;;;;;;;10.00;1.73;;;11.50;99.90;;;;;;5017775;28;20233;-69
2022/11/25 13:12:33;;;;;;;7.77;1.50;;;11.60;99.90;;;;;;5003388;28;20403;-69
2022/11/25 13:15:20;;;;;;;7.50;1.75;;;11.60;99.90;;;;;;5026525;28;20431;-69
2022/11/25 13:17:48;;;;;;;7.45;1.88;;;11.60;99.90;;;;;;5036790;28;20128;-69
2022/11/25 13:20:22;;;;;;;6.57;1.88;;;11.60;99.90;;;;;;5029996;28;20114;-69
2022/11/25 13:23:09;;;;;;;8.23;2.35;;;11.60;99.90;;;;;;5037768;28;20076;-69